createdAt,value
2017-08-15T00:02:08.994Z,4.80
2017-08-15T00:04:37.336Z,5.47
2017-08-15T00:07:05.823Z,5.40
2017-08-15T00:09:35.415Z,4.77
2017-08-15T00:12:03.793Z,5.60
2017-08-15T00:14:32.199Z,4.80
2017-08-15T00:17:01.045Z,4.70
2017-08-15T00:19:29.444Z,5.27
2017-08-15T00:21:57.936Z,4.90
2017-08-15T00:24:26.996Z,5.50
2017-08-15T00:26:55.411Z,5.03
2017-08-15T00:29:23.892Z,5.20
2017-08-15T00:31:52.656Z,5.20
2017-08-15T00:34:21.105Z,5.10
2017-08-15T00:36:49.543Z,5.07
2017-08-15T00:39:18.675Z,5.87
2017-08-15T00:41:47.222Z,5.43
2017-08-15T00:44:16.438Z,4.70
2017-08-15T00:46:45.503Z,5.43
2017-08-15T00:49:13.884Z,6.20
2017-08-15T00:51:42.376Z,5.17
2017-08-15T00:54:11.085Z,5.67
2017-08-15T00:56:40.365Z,5.20
2017-08-15T00:59:08.836Z,5.03
2017-08-15T01:01:37.705Z,5.30
2017-08-15T01:04:06.158Z,5.10
2017-08-15T01:06:34.711Z,5.30
2017-08-15T01:09:04.126Z,5.67
2017-08-15T01:11:32.484Z,5.83
2017-08-15T01:14:00.883Z,5.00
2017-08-15T01:16:29.613Z,5.70
2017-08-15T01:18:58.016Z,5.23
2017-08-15T01:21:26.447Z,6.10
2017-08-15T01:23:55.540Z,5.57
2017-08-15T01:26:23.975Z,5.63
2017-08-15T01:28:52.469Z,5.13
2017-08-15T01:31:21.378Z,5.40
2017-08-15T01:33:50.750Z,5.17
2017-08-15T01:36:19.164Z,5.10
2017-08-15T01:38:48.042Z,5.90
2017-08-15T01:41:16.440Z,5.50
2017-08-15T01:43:44.925Z,5.33
2017-08-15T01:46:13.974Z,4.93
2017-08-15T01:48:42.472Z,5.17
2017-08-15T01:51:10.886Z,5.90
2017-08-15T01:53:39.611Z,5.70
2017-08-15T01:56:08.093Z,5.73
2017-08-15T01:58:36.449Z,6.00
2017-08-15T02:01:05.343Z,5.30
2017-08-15T02:03:33.694Z,5.17
2017-08-15T02:06:02.800Z,6.27
2017-08-15T02:08:32.634Z,6.33
2017-08-15T02:11:00.979Z,5.30
2017-08-15T02:13:30.096Z,6.53
2017-08-15T02:15:58.884Z,6.03
2017-08-15T02:18:27.235Z,6.20
2017-08-15T02:20:56.386Z,6.13
2017-08-15T02:23:25.116Z,6.00
2017-08-15T02:25:53.479Z,6.10
2017-08-15T02:28:21.853Z,6.23
2017-08-15T02:30:51.433Z,6.77
2017-08-15T02:33:19.808Z,5.60
2017-08-15T02:35:48.185Z,6.30
2017-08-15T02:38:17.066Z,6.30
2017-08-15T02:40:45.412Z,6.80
2017-08-15T02:43:15.519Z,7.07
2017-08-15T02:45:44.293Z,6.20
2017-08-15T02:48:12.695Z,6.57
2017-08-15T02:50:41.045Z,6.70
2017-08-15T02:53:09.757Z,5.40
2017-08-15T02:55:38.192Z,6.03
2017-08-15T02:58:06.548Z,6.23
2017-08-15T03:00:35.327Z,6.63
2017-08-15T03:03:04.448Z,6.20
2017-08-15T03:05:32.778Z,6.73
2017-08-15T03:08:01.557Z,6.40
2017-08-15T03:10:29.905Z,6.20
2017-08-15T03:12:58.265Z,5.90
2017-08-15T03:15:27.066Z,7.10
2017-08-15T03:17:55.431Z,6.90
2017-08-15T03:20:23.791Z,6.77
2017-08-15T03:22:53.259Z,6.10
2017-08-15T03:25:21.611Z,6.80
2017-08-15T03:27:49.989Z,6.90
2017-08-15T03:30:18.660Z,7.10
2017-08-15T03:32:47.082Z,7.23
2017-08-15T03:35:15.477Z,7.13
2017-08-15T03:37:44.519Z,7.40
2017-08-15T03:40:12.900Z,7.27
2017-08-15T03:42:41.310Z,7.00
2017-08-15T03:45:10.024Z,6.77
2017-08-15T03:47:38.517Z,7.40
2017-08-15T03:50:07.708Z,7.60
2017-08-15T03:52:36.717Z,7.20
2017-08-15T03:55:05.111Z,7.00
2017-08-15T03:57:33.581Z,7.33
2017-08-15T04:00:02.450Z,7.20
2017-08-15T04:02:30.862Z,7.27
2017-08-15T04:04:59.288Z,7.13
2017-08-15T04:07:28.203Z,7.03
2017-08-15T04:09:56.571Z,7.30
2017-08-15T04:12:24.977Z,6.90
2017-08-15T04:14:55.127Z,7.77
2017-08-15T04:17:23.516Z,7.80
2017-08-15T04:19:51.867Z,7.50
2017-08-15T04:22:20.563Z,6.83
2017-08-15T04:24:49.020Z,7.70
2017-08-15T04:27:18.312Z,8.53
2017-08-15T04:29:47.277Z,7.67
2017-08-15T04:32:15.788Z,7.20
2017-08-15T04:34:44.298Z,7.40
2017-08-15T04:37:13.383Z,7.60
2017-08-15T04:39:41.910Z,7.70
2017-08-15T04:42:10.327Z,7.97
2017-08-15T04:44:39.318Z,7.60
2017-08-15T04:47:07.720Z,7.87
2017-08-15T04:49:36.108Z,6.63
2017-08-15T04:52:05.148Z,7.30
2017-08-15T04:54:33.512Z,7.80
2017-08-15T04:57:01.924Z,7.00
2017-08-15T04:59:30.827Z,6.97
2017-08-15T05:01:59.170Z,6.97
2017-08-15T05:04:27.571Z,7.10
2017-08-15T05:06:56.690Z,7.07
2017-08-15T05:09:25.896Z,6.80
2017-08-15T05:11:54.273Z,6.53
2017-08-15T05:14:22.958Z,7.20
2017-08-15T05:16:52.980Z,6.40
2017-08-15T05:19:21.483Z,8.13
2017-08-15T05:21:50.168Z,6.50
2017-08-15T05:24:18.556Z,6.70
2017-08-15T05:26:47.022Z,7.10
2017-08-15T05:29:15.730Z,7.27
2017-08-15T05:31:44.093Z,7.13
2017-08-15T05:34:12.454Z,7.03
2017-08-15T05:36:42.091Z,7.60
2017-08-15T05:39:10.449Z,7.60
2017-08-15T05:41:39.582Z,7.50
2017-08-15T05:44:08.354Z,7.67
2017-08-15T05:46:36.723Z,7.87
2017-08-15T05:49:05.116Z,7.80
2017-08-15T05:51:34.081Z,7.50
2017-08-15T05:54:03.216Z,7.73
2017-08-15T05:56:31.590Z,7.30
2017-08-15T05:59:00.467Z,7.53
2017-08-15T06:01:28.850Z,7.70
2017-08-15T06:03:57.212Z,8.17
2017-08-15T06:06:25.966Z,7.40
2017-08-15T06:08:54.362Z,8.00
2017-08-15T06:11:22.717Z,8.43
2017-08-15T06:13:51.672Z,7.93
2017-08-15T06:16:20.080Z,8.40
2017-08-15T06:18:48.516Z,8.63
2017-08-15T06:21:17.290Z,7.97
2017-08-15T06:23:46.415Z,8.80
2017-08-15T06:26:14.783Z,7.40
2017-08-15T06:28:43.544Z,7.70
2017-08-15T06:31:11.908Z,8.03
2017-08-15T06:33:40.229Z,7.80
2017-08-15T06:36:08.912Z,7.97
2017-08-15T06:38:37.282Z,8.10
2017-08-15T06:41:05.649Z,7.70
2017-08-15T06:43:34.328Z,8.23
2017-08-15T06:46:02.713Z,7.73
2017-08-15T06:48:31.089Z,7.83
2017-08-15T06:51:00.019Z,8.30
2017-08-15T06:53:28.392Z,8.10
2017-08-15T06:55:56.763Z,8.57
2017-08-15T06:58:25.653Z,7.80
2017-08-15T07:00:54.007Z,8.03
2017-08-15T07:03:22.372Z,8.07
2017-08-15T07:05:51.143Z,9.40
2017-08-15T07:08:19.491Z,8.50
2017-08-15T07:10:47.854Z,8.23
2017-08-15T07:13:16.518Z,8.97
2017-08-15T07:15:44.866Z,8.40
2017-08-15T07:18:13.204Z,7.83
2017-08-15T07:20:42.214Z,8.70
2017-08-15T07:23:10.577Z,8.30
2017-08-15T07:25:38.946Z,8.07
2017-08-15T07:28:07.654Z,8.87
2017-08-15T07:30:35.986Z,7.63
2017-08-15T07:33:04.327Z,7.03
2017-08-15T07:35:32.980Z,8.17
2017-08-15T07:38:01.332Z,8.30
2017-08-15T07:40:29.672Z,7.40
2017-08-15T07:42:58.532Z,8.57
2017-08-15T07:45:26.869Z,8.07
2017-08-15T07:47:55.228Z,7.53
2017-08-15T07:50:23.992Z,8.03
2017-08-15T07:52:52.347Z,7.03
2017-08-15T07:55:20.772Z,7.80
2017-08-15T07:57:49.537Z,8.40
2017-08-15T08:00:17.913Z,7.50
2017-08-15T08:02:46.274Z,7.80
2017-08-15T08:05:15.031Z,7.87
2017-08-15T08:07:43.544Z,7.53
2017-08-15T08:10:11.969Z,7.33
2017-08-15T08:12:40.653Z,7.47
2017-08-15T08:15:09.008Z,7.37
2017-08-15T08:17:37.381Z,8.03
2017-08-15T08:20:06.113Z,7.27
2017-08-15T08:22:34.488Z,7.90
2017-08-15T08:25:02.871Z,8.00
2017-08-15T08:27:31.667Z,7.20
2017-08-15T08:30:00.054Z,6.97
2017-08-15T08:32:28.424Z,8.40
2017-08-15T08:34:57.101Z,8.00
2017-08-15T08:37:25.535Z,7.50
2017-08-15T08:39:54.837Z,7.60
2017-08-15T08:42:23.517Z,7.13
2017-08-15T08:44:51.873Z,7.47
2017-08-15T08:47:20.244Z,8.20
2017-08-15T08:49:49.140Z,6.73
2017-08-15T08:52:17.515Z,7.90
2017-08-15T08:54:45.926Z,8.40
2017-08-15T08:57:14.839Z,7.10
2017-08-15T08:59:43.205Z,7.13
2017-08-15T09:02:11.575Z,6.93
2017-08-15T09:04:40.513Z,6.73
2017-08-15T09:07:08.879Z,7.27
2017-08-15T09:09:37.336Z,6.00
2017-08-15T09:12:06.166Z,6.90
2017-08-15T09:14:34.535Z,6.90
2017-08-15T09:17:02.893Z,6.17
2017-08-15T09:19:31.541Z,6.83
2017-08-15T09:21:59.896Z,6.97
2017-08-15T09:24:28.255Z,6.30
2017-08-15T09:26:56.939Z,6.60
2017-08-15T09:29:25.361Z,6.53
2017-08-15T09:31:53.731Z,6.27
2017-08-15T09:34:22.711Z,6.80
2017-08-15T09:36:51.186Z,6.23
2017-08-15T09:39:19.547Z,6.10
2017-08-15T09:41:48.336Z,6.10
2017-08-15T09:44:16.818Z,6.27
2017-08-15T09:46:45.444Z,5.80
2017-08-15T09:49:14.404Z,6.10
2017-08-15T09:51:42.760Z,6.00
2017-08-15T09:54:11.130Z,7.20
2017-08-15T09:56:40.240Z,6.37
2017-08-15T09:59:09.486Z,6.60
2017-08-15T10:01:37.883Z,6.60
2017-08-15T10:04:06.673Z,5.70
2017-08-15T10:06:35.098Z,5.93
2017-08-15T10:09:03.474Z,6.17
2017-08-15T10:11:32.153Z,6.10
2017-08-15T10:14:00.572Z,6.10
2017-08-15T10:16:29.002Z,5.97
2017-08-15T10:18:57.812Z,6.33
2017-08-15T10:21:26.220Z,5.80
2017-08-15T10:23:54.600Z,6.47
2017-08-15T10:26:23.475Z,5.93
2017-08-15T10:28:51.845Z,5.60
2017-08-15T10:31:20.229Z,6.40
2017-08-15T10:33:48.974Z,6.00
2017-08-15T10:36:18.118Z,6.33
2017-08-15T10:38:46.485Z,5.60
2017-08-15T10:41:15.306Z,5.90
2017-08-15T10:43:43.683Z,6.17
2017-08-15T10:46:12.048Z,5.90
2017-08-15T10:48:40.833Z,6.13
2017-08-15T10:51:09.239Z,5.63
2017-08-15T10:53:37.609Z,5.63
2017-08-15T10:56:06.468Z,6.20
2017-08-15T10:58:34.840Z,6.07
2017-08-15T11:01:03.217Z,5.67
2017-08-15T11:03:32.099Z,5.70
2017-08-15T11:06:00.420Z,6.87
2017-08-15T11:08:28.786Z,6.00
2017-08-15T11:10:57.424Z,6.13
2017-08-15T11:13:26.564Z,6.37
2017-08-15T11:15:54.959Z,6.50
2017-08-15T11:18:23.584Z,7.33
2017-08-15T11:20:51.920Z,6.60
2017-08-15T11:23:20.299Z,6.30
2017-08-15T11:25:49.265Z,6.27
2017-08-15T11:28:17.663Z,6.23
2017-08-15T11:30:46.056Z,7.03
2017-08-15T11:33:14.754Z,6.90
2017-08-15T11:35:43.107Z,6.60
2017-08-15T11:38:11.479Z,6.70
2017-08-15T11:40:40.374Z,6.30
2017-08-15T11:43:08.735Z,6.30
2017-08-15T11:45:37.093Z,6.40
2017-08-15T11:48:06.511Z,7.00
2017-08-15T11:50:34.928Z,6.10
2017-08-15T11:53:03.299Z,6.67
2017-08-15T11:55:32.088Z,6.30
2017-08-15T11:58:00.461Z,6.57
2017-08-15T12:00:28.823Z,6.73
2017-08-15T12:02:57.608Z,5.40
2017-08-15T12:05:26.805Z,5.23
2017-08-15T12:07:55.740Z,5.10
2017-08-15T12:10:24.673Z,4.70
2017-08-15T12:12:53.050Z,4.70
2017-08-15T12:15:21.412Z,4.83
2017-08-15T12:17:50.466Z,5.03
2017-08-15T12:20:19.546Z,5.27
2017-08-15T12:22:48.509Z,4.87
2017-08-15T12:25:17.341Z,4.30
2017-08-15T12:27:46.232Z,4.63
2017-08-15T12:30:14.911Z,4.90
2017-08-15T12:32:44.249Z,4.93
2017-08-15T12:35:12.690Z,4.40
2017-08-15T12:37:41.043Z,5.77
2017-08-15T12:40:09.690Z,4.90
2017-08-15T12:42:38.041Z,5.67
2017-08-15T12:45:06.406Z,4.87
2017-08-15T12:47:35.113Z,4.80
2017-08-15T12:50:03.492Z,4.83
2017-08-15T12:52:31.912Z,5.37
2017-08-15T12:55:01.584Z,5.40
2017-08-15T12:57:29.922Z,6.10
2017-08-15T12:59:58.342Z,5.40
2017-08-15T13:02:27.054Z,5.37
2017-08-15T13:04:55.432Z,5.23
2017-08-15T13:07:23.794Z,5.77
2017-08-15T13:09:52.694Z,6.13
2017-08-15T13:12:21.073Z,5.60
2017-08-15T13:14:49.549Z,5.70
2017-08-15T13:17:18.550Z,5.57
2017-08-15T13:19:46.936Z,5.70
2017-08-15T13:22:15.371Z,5.13
2017-08-15T13:24:45.810Z,5.30
2017-08-15T13:27:14.158Z,5.47
2017-08-15T13:29:42.552Z,5.70
2017-08-15T13:32:11.265Z,5.33
2017-08-15T13:34:39.631Z,5.60
2017-08-15T13:37:08.020Z,6.00
2017-08-15T13:39:37.119Z,5.20
2017-08-15T13:42:05.482Z,5.50
2017-08-15T13:44:33.835Z,5.13
2017-08-15T13:47:02.691Z,5.27
2017-08-15T13:49:31.053Z,4.50
2017-08-15T13:51:59.388Z,5.27
2017-08-15T13:54:28.222Z,5.27
2017-08-15T13:56:56.603Z,5.27
2017-08-15T13:59:24.958Z,5.43
2017-08-15T14:01:53.783Z,5.60
2017-08-15T14:04:22.138Z,5.60
2017-08-15T14:06:50.495Z,5.00
2017-08-15T14:09:19.343Z,5.43
2017-08-15T14:11:47.747Z,5.40
2017-08-15T14:14:16.116Z,5.63
2017-08-15T14:16:44.886Z,4.80
2017-08-15T14:19:13.255Z,5.40
2017-08-15T14:21:41.697Z,4.40
2017-08-15T14:24:10.491Z,4.73
2017-08-15T14:26:38.845Z,4.70
2017-08-15T14:29:07.212Z,4.87
2017-08-15T14:31:35.940Z,4.97
2017-08-15T14:34:04.279Z,4.87
2017-08-15T14:36:32.649Z,4.70
2017-08-15T14:39:01.394Z,4.80
2017-08-15T14:41:29.767Z,5.03
2017-08-15T14:43:58.150Z,4.43
2017-08-15T14:46:27.151Z,4.63
2017-08-15T14:48:55.527Z,4.30
2017-08-15T14:51:23.937Z,4.00
2017-08-15T14:53:52.619Z,4.40
2017-08-15T14:56:21.000Z,4.67
2017-08-15T14:58:49.408Z,3.90
2017-08-15T15:01:18.055Z,4.60
2017-08-15T15:03:46.443Z,4.40
2017-08-15T15:06:14.819Z,4.60
2017-08-15T15:08:43.708Z,3.67
2017-08-15T15:11:12.057Z,4.50
2017-08-15T15:13:40.409Z,4.73
2017-08-15T15:16:09.331Z,4.47
2017-08-15T15:18:37.702Z,4.00
2017-08-15T15:21:06.058Z,3.77
2017-08-15T15:23:34.833Z,4.27
2017-08-15T15:26:03.200Z,4.03
2017-08-15T15:28:31.595Z,4.00
2017-08-15T15:31:00.590Z,4.33
2017-08-15T15:33:28.964Z,3.67
2017-08-15T15:35:57.352Z,3.93
2017-08-15T15:38:26.305Z,3.93
2017-08-15T15:40:54.701Z,3.90
2017-08-15T15:43:23.080Z,3.83
2017-08-15T15:45:52.853Z,4.00
2017-08-15T15:48:21.244Z,4.00
2017-08-15T15:50:49.604Z,3.67
2017-08-15T15:53:18.410Z,4.27
2017-08-15T15:55:46.785Z,3.77
2017-08-15T15:58:15.145Z,3.77
2017-08-15T16:00:43.848Z,3.90
2017-08-15T16:03:12.211Z,4.37
2017-08-15T16:05:40.577Z,4.10
2017-08-15T16:08:09.421Z,4.20
2017-08-15T16:10:37.805Z,3.93
2017-08-15T16:13:06.160Z,4.40
2017-08-15T16:15:34.974Z,4.70
2017-08-15T16:18:03.351Z,4.10
2017-08-15T16:20:31.699Z,3.77
2017-08-15T16:23:00.352Z,4.73
2017-08-15T16:25:28.713Z,4.23
2017-08-15T16:27:57.102Z,4.10
2017-08-15T16:30:26.053Z,4.17
2017-08-15T16:32:54.409Z,4.33
2017-08-15T16:35:22.780Z,3.97
2017-08-15T16:37:51.736Z,4.70
2017-08-15T16:40:20.110Z,3.70
2017-08-15T16:42:48.480Z,4.30
2017-08-15T16:45:17.404Z,4.73
2017-08-15T16:47:45.780Z,5.43
2017-08-15T16:50:14.160Z,4.00
2017-08-15T16:52:42.849Z,3.67
2017-08-15T16:55:11.284Z,4.60
2017-08-15T16:57:39.639Z,4.00
2017-08-15T17:00:08.429Z,3.87
2017-08-15T17:02:36.935Z,4.23
2017-08-15T17:05:05.366Z,4.00
2017-08-15T17:07:34.288Z,3.60
2017-08-15T17:10:02.706Z,3.93
2017-08-15T17:12:31.176Z,3.80
2017-08-15T17:14:59.950Z,5.13
2017-08-15T17:17:28.340Z,3.40
2017-08-15T17:19:56.698Z,4.03
2017-08-15T17:22:25.460Z,3.93
2017-08-15T17:24:54.587Z,3.87
2017-08-15T17:27:22.940Z,4.00
2017-08-15T17:29:51.594Z,4.50
2017-08-15T17:32:19.948Z,4.13
2017-08-15T17:34:48.338Z,4.43
2017-08-15T17:37:17.299Z,4.70
2017-08-15T17:39:45.688Z,4.17
2017-08-15T17:42:14.022Z,5.20
2017-08-15T17:44:43.178Z,4.63
2017-08-15T17:47:11.559Z,4.10
2017-08-15T17:49:39.915Z,4.77
2017-08-15T17:52:08.663Z,3.90
2017-08-15T17:54:37.040Z,4.30
2017-08-15T17:57:05.391Z,4.97
2017-08-15T17:59:34.061Z,4.67
2017-08-15T18:02:02.507Z,4.50
2017-08-15T18:04:30.864Z,4.80
2017-08-15T18:06:59.751Z,4.33
2017-08-15T18:09:28.121Z,4.27
2017-08-15T18:11:56.507Z,4.50
2017-08-15T18:14:25.343Z,4.33
2017-08-15T18:16:53.721Z,3.80
2017-08-15T18:19:22.116Z,3.97
2017-08-15T18:21:50.797Z,4.20
2017-08-15T18:24:19.127Z,4.00
2017-08-15T18:26:47.539Z,3.60
2017-08-15T18:29:16.460Z,3.53
2017-08-15T18:31:44.838Z,4.40
2017-08-15T18:34:13.249Z,4.80
2017-08-15T18:36:41.951Z,3.60
2017-08-15T18:39:10.318Z,2.80
2017-08-15T18:41:38.687Z,2.97
2017-08-15T18:44:07.565Z,2.87
2017-08-15T18:46:35.928Z,3.40
2017-08-15T18:49:04.286Z,3.83
2017-08-15T18:51:33.129Z,3.47
2017-08-15T18:54:01.482Z,3.40
2017-08-15T18:56:29.848Z,2.63
2017-08-15T18:58:58.650Z,3.93
2017-08-15T19:01:27.009Z,3.47
2017-08-15T19:03:55.434Z,2.67
2017-08-15T19:06:24.303Z,3.00
2017-08-15T19:08:52.677Z,2.90
2017-08-15T19:11:21.051Z,3.90
2017-08-15T19:13:49.834Z,4.07
2017-08-15T19:16:18.560Z,4.07
2017-08-15T19:18:46.925Z,4.00
2017-08-15T19:21:15.582Z,3.80
2017-08-15T19:23:43.931Z,3.90
2017-08-15T19:26:13.062Z,3.77
2017-08-15T19:28:41.878Z,3.87
2017-08-15T19:31:10.258Z,3.80
2017-08-15T19:33:38.682Z,4.43
2017-08-15T19:36:07.436Z,4.20
2017-08-15T19:38:35.875Z,4.50
2017-08-15T19:41:04.265Z,4.37
2017-08-15T19:43:33.152Z,4.57
2017-08-15T19:46:01.622Z,4.50
2017-08-15T19:48:30.030Z,4.50
2017-08-15T19:50:58.731Z,4.37
2017-08-15T19:53:27.177Z,6.00
2017-08-15T19:55:55.561Z,4.60
2017-08-15T19:58:24.410Z,4.60
2017-08-15T20:00:52.796Z,4.27
2017-08-15T20:03:21.157Z,4.47
2017-08-15T20:05:49.792Z,4.07
2017-08-15T20:08:18.174Z,3.83
2017-08-15T20:10:46.550Z,4.57
2017-08-15T20:13:15.410Z,4.27
2017-08-15T20:15:44.568Z,3.77
2017-08-15T20:18:12.953Z,4.23
2017-08-15T20:20:41.741Z,4.57
2017-08-15T20:23:10.119Z,3.93
2017-08-15T20:25:38.499Z,3.97
2017-08-15T20:28:07.445Z,4.50
2017-08-15T20:30:35.881Z,4.60
2017-08-15T20:33:04.276Z,3.80
2017-08-15T20:35:32.973Z,4.23
2017-08-15T20:38:01.361Z,4.20
2017-08-15T20:40:29.716Z,4.13
2017-08-15T20:42:59.366Z,3.87
2017-08-15T20:45:27.713Z,3.87
2017-08-15T20:47:56.050Z,4.00
2017-08-15T20:50:24.798Z,4.53
2017-08-15T20:52:53.125Z,4.10
2017-08-15T20:55:21.461Z,3.73
2017-08-15T20:57:50.175Z,4.30
2017-08-15T21:00:18.529Z,3.80
2017-08-15T21:02:46.891Z,4.07
2017-08-15T21:05:16.749Z,4.33
2017-08-15T21:07:45.106Z,4.03
2017-08-15T21:10:13.480Z,4.10
2017-08-15T21:12:42.181Z,3.87
2017-08-15T21:15:10.539Z,3.53
2017-08-15T21:17:38.901Z,4.60
2017-08-15T21:20:07.587Z,3.80
2017-08-15T21:22:36.119Z,4.77
2017-08-15T21:25:04.497Z,4.07
2017-08-15T21:27:33.481Z,4.20
2017-08-15T21:30:01.860Z,3.70
2017-08-15T21:32:30.198Z,4.10
2017-08-15T21:34:59.137Z,4.23
2017-08-15T21:37:27.497Z,3.97
2017-08-15T21:39:55.856Z,4.23
2017-08-15T21:42:24.525Z,3.93
2017-08-15T21:44:52.874Z,3.60
2017-08-15T21:47:21.244Z,4.30
2017-08-15T21:49:50.468Z,4.73
2017-08-15T21:52:18.896Z,3.80
2017-08-15T21:54:47.251Z,4.20
2017-08-15T21:57:16.707Z,3.87
2017-08-15T21:59:45.058Z,4.80
2017-08-15T22:02:19.027Z,4.10
2017-08-15T22:04:47.388Z,4.27
2017-08-15T22:07:15.763Z,3.97
2017-08-15T22:09:44.622Z,4.40
2017-08-15T22:12:12.991Z,4.13
2017-08-15T22:14:42.133Z,4.80
2017-08-15T22:17:10.763Z,4.23
2017-08-15T22:19:39.950Z,4.50
2017-08-15T22:22:08.308Z,4.40
2017-08-15T22:24:37.179Z,3.70
2017-08-15T22:27:05.541Z,4.10
2017-08-15T22:29:33.890Z,4.13
2017-08-15T22:32:03.108Z,3.90
2017-08-15T22:34:31.467Z,4.00
2017-08-15T22:36:59.848Z,3.90
2017-08-15T22:39:29.450Z,3.77
2017-08-15T22:41:57.807Z,4.40
2017-08-15T22:44:27.003Z,4.10
2017-08-15T22:46:55.641Z,3.87
2017-08-15T22:49:24.023Z,4.43
2017-08-15T22:51:52.392Z,3.90
2017-08-15T22:54:21.180Z,3.83
2017-08-15T22:56:49.531Z,3.93
2017-08-15T22:59:17.878Z,3.93
2017-08-15T23:01:46.657Z,4.00
2017-08-15T23:04:15.042Z,4.17
2017-08-15T23:06:43.425Z,4.30
2017-08-15T23:09:12.297Z,4.67
2017-08-15T23:11:40.675Z,4.30
2017-08-15T23:14:09.067Z,4.13
2017-08-15T23:16:38.046Z,3.73
2017-08-15T23:19:07.139Z,4.70
2017-08-15T23:21:35.504Z,4.00
2017-08-15T23:24:04.205Z,4.53
2017-08-15T23:26:32.584Z,4.10
2017-08-15T23:29:00.950Z,4.20
2017-08-15T23:31:29.655Z,4.50
2017-08-15T23:33:57.987Z,4.37
2017-08-15T23:36:27.116Z,3.80
2017-08-15T23:38:56.334Z,3.70
2017-08-15T23:41:24.726Z,4.50
2017-08-15T23:43:53.092Z,3.60
2017-08-15T23:46:21.978Z,3.37
2017-08-15T23:48:50.344Z,3.90
2017-08-15T23:51:18.691Z,4.27
2017-08-15T23:53:47.412Z,4.80
2017-08-15T23:56:15.783Z,3.80
2017-08-15T23:58:44.158Z,3.90
